Terminal Aerodrome Forecast
Issued by NWS

Home | Current Version | Previous Version | Graphics & Text | Print | Product List | Glossary On
Versions: 1 2 3 4 5 6 7 8 9 10 11 12 13 14 15 16 17 18
961
FTUS43 KBIS 221720
TAFMOT
TAF
KMOT 221720Z 2218/2318 35011KT P6SM VCTS BKN060CB BKN140
     FM222100 35012KT P6SM -SHRA VCTS OVC035CB
     FM230000 34012KT P6SM VCSH OVC020
     FM230300 34010KT P6SM VCSH OVC015
     FM230600 34007KT P6SM OVC015
     FM231300 33007KT P6SM OVC020=

USA.gov is the U.S. government's official web portal to all federal, state and local government web resources and services.